Time;durP1;ratioP1;P1;durP2;ratioP2;P2;SDS_P1;SDS_P2;PMS_P1;PMS_P2;Temp;Humidity;BMP_temperature;BMP_pressure;BME280_temperature;BME280_humidity;BME280_pressure;Samples;Min_cycle;Max_cycle;Signal;HPM_P1;HPM_P2
2023/08/18 00:01:58;118801.00;0.40;206.01;0.00;0.00;0.62;;;;;25.20;1.00;;;;;;2273075;61;1549;-87
2023/08/18 00:04:25;187661.00;0.63;324.68;41405.00;0.14;72.32;;;;;25.20;1.00;;;;;;2272992;61;1695;-88
2023/08/18 00:06:54;58190.00;0.19;101.35;0.00;0.00;0.62;;;;;25.30;1.00;;;;;;2273097;61;1069;-88
2023/08/18 00:09:21;85433.00;0.28;148.42;0.00;0.00;0.62;;;;;25.40;1.00;;;;;;2272994;61;1741;-87
2023/08/18 00:14:16;714023.00;2.38;1231.56;0.00;0.00;0.62;;;;;25.40;1.00;;;;;;2270494;61;1910;-88
2023/08/18 00:24:12;571698.00;1.91;985.38;0.00;0.00;0.62;;;;;24.60;1.00;;;;;;2300904;56;3617;-90
2023/08/18 00:26:39;101637.00;0.34;176.40;0.00;0.00;0.62;;;;;24.40;1.40;;;;;;2273031;61;1006;-88
2023/08/18 00:29:06;102210.00;0.34;177.39;0.00;0.00;0.62;;;;;24.30;2.80;;;;;;2280331;55;3752;-88
2023/08/18 00:34:01;668356.00;2.23;1152.41;0.00;0.00;0.62;;;;;24.20;4.10;;;;;;2270734;61;1904;-88
2023/08/18 00:36:30;328922.00;1.10;567.63;0.00;0.00;0.62;;;;;24.30;4.30;;;;;;2269028;61;1016;-90
2023/08/18 00:38:58;29095.00;0.10;51.02;0.00;0.00;0.62;;;;;24.30;4.50;;;;;;2268782;61;1574;-88
2023/08/18 00:41:26;15922.00;0.05;28.21;0.00;0.00;0.62;;;;;24.20;4.30;;;;;;2268864;61;1095;-87
2023/08/18 00:43:53;219971.00;0.73;380.29;0.00;0.00;0.62;;;;;24.10;4.30;;;;;;2268840;61;1572;-89
2023/08/18 00:46:21;78327.00;0.26;136.15;0.00;0.00;0.62;;;;;24.20;4.30;;;;;;2268922;61;1594;-89
2023/08/18 00:48:49;268701.00;0.90;464.11;0.00;0.00;0.62;;;;;24.10;4.60;;;;;;2268961;61;1048;-89
2023/08/18 00:51:16;413844.00;1.38;713.61;0.00;0.00;0.62;;;;;24.10;4.40;;;;;;2268913;61;923;-86
2023/08/18 00:53:44;1058761.00;3.53;1836.83;88166.00;0.29;153.14;;;;;24.00;4.20;;;;;;2268790;61;1640;-91
2023/08/18 00:56:12;1006396.00;3.35;1743.80;104936.00;0.35;182.09;;;;;24.10;4.40;;;;;;2268834;61;2010;-88
2023/08/18 00:58:41;787759.00;2.63;1359.78;32030.00;0.11;56.10;;;;;23.90;4.80;;;;;;2268836;61;1477;-89
2023/08/18 01:01:08;1413509.00;4.71;2481.40;136091.00;0.45;235.83;;;;;23.80;4.70;;;;;;2268896;61;937;-89
2023/08/18 01:08:33;613984.00;2.05;1058.37;65302.00;0.22;113.64;;;;;23.50;3.60;;;;;;2270640;61;1361;-89
2023/08/18 01:11:07;485205.00;1.62;836.36;92806.00;0.31;161.15;;;;;23.50;4.00;;;;;;2268687;61;1719;-89
2023/08/18 01:13:45;589282.00;1.96;1015.72;178080.00;0.59;308.18;;;;;23.40;4.30;;;;;;2268672;61;1465;-90
2023/08/18 01:16:18;306920.00;1.02;529.82;80950.00;0.27;140.68;;;;;23.60;3.50;;;;;;2268769;61;1927;-89
2023/08/18 01:18:46;249165.00;0.83;430.51;73570.00;0.25;127.93;;;;;23.60;3.10;;;;;;2268736;61;966;-87
2023/08/18 01:21:17;118230.00;0.39;205.03;0.00;0.00;0.62;;;;;23.70;3.40;;;;;;2268690;61;1667;-89
2023/08/18 01:23:45;135834.00;0.45;235.39;0.00;0.00;0.62;;;;;23.60;3.10;;;;;;2268799;61;1427;-90
2023/08/18 01:31:15;120045496.00;400.15;70079712.00;119294184.00;397.65;68770960.00;;;;;23.20;5.70;;;;;;2300339;40;3525;-90
2023/08/18 01:33:49;22647.00;0.08;39.85;0.00;0.00;0.62;;;;;23.00;6.70;;;;;;2272729;61;1466;-88
2023/08/18 01:36:20;442228.00;1.47;762.41;94965.00;0.32;164.88;;;;;23.00;7.20;;;;;;2272582;61;2006;-90
2023/08/18 01:38:52;350970.00;1.17;605.53;109965.00;0.37;190.77;;;;;23.00;5.90;;;;;;2272667;61;1099;-89
2023/08/18 01:41:24;397847.00;1.33;686.10;0.00;0.00;0.62;;;;;23.00;7.00;;;;;;2286038;40;3556;-89
2023/08/18 01:46:19;554055.00;1.85;954.95;62833.00;0.21;109.37;;;;;23.20;6.30;;;;;;2270254;61;1392;-88
2023/08/18 01:48:46;279772.00;0.93;483.15;0.00;0.00;0.62;;;;;23.30;5.90;;;;;;2268738;61;1022;-87
2023/08/18 01:51:13;158142.00;0.53;273.84;0.00;0.00;0.62;;;;;23.10;5.80;;;;;;2268641;61;1122;-89
2023/08/18 01:53:39;222666.00;0.74;384.93;0.00;0.00;0.62;;;;;23.10;6.20;;;;;;2268704;61;1316;-88
2023/08/18 01:56:08;428275.00;1.43;738.42;20201.00;0.07;35.62;;;;;23.00;6.20;;;;;;2268468;61;1998;-88
2023/08/18 01:58:35;284247.00;0.95;490.84;30032.00;0.10;52.64;;;;;22.80;7.10;;;;;;2268534;61;1031;-86
2023/08/18 02:01:02;463032.00;1.54;798.20;10729.00;0.04;19.21;;;;;22.90;6.90;;;;;;2268712;61;1791;-88
2023/08/18 02:03:29;1038191.00;3.46;1800.23;13245.00;0.04;23.57;;;;;22.90;7.20;;;;;;2268656;61;1296;-88
2023/08/18 02:05:57;823790.00;2.75;1422.65;73892.00;0.25;128.49;;;;;22.90;6.90;;;;;;2268460;61;1067;-88
2023/08/18 02:08:25;653522.00;2.18;1126.73;76983.00;0.26;133.83;;;;;23.00;6.20;;;;;;2268431;61;1036;-88
2023/08/18 02:10:52;684083.00;2.28;1179.65;30909.00;0.10;54.16;;;;;23.10;6.90;;;;;;2277304;55;3788;-88
2023/08/18 02:13:20;1371404.00;4.57;2403.39;231205.00;0.77;399.62;;;;;23.00;6.10;;;;;;2272590;61;1344;-89
2023/08/18 02:15:47;1105070.00;3.68;1919.49;118811.00;0.40;206.03;;;;;22.80;6.50;;;;;;2272324;61;1926;-88
2023/08/18 02:18:14;748656.00;2.50;1291.72;77958.00;0.26;135.51;;;;;22.70;7.90;;;;;;2272652;61;1713;-89
2023/08/18 02:23:11;632294.00;2.11;1090.01;80661.00;0.27;140.18;;;;;22.50;8.00;;;;;;2270553;61;1376;-88
2023/08/18 02:25:37;458953.00;1.53;791.18;139296.00;0.46;241.36;;;;;22.50;6.60;;;;;;2268413;61;1022;-89
2023/08/18 02:28:05;283999.00;0.95;490.41;92136.00;0.31;160.00;;;;;22.60;7.20;;;;;;2268490;61;1019;-91
2023/08/18 02:33:01;473266.00;1.58;815.81;63860.00;0.21;111.15;;;;;22.50;6.50;;;;;;2270387;61;1424;-89
2023/08/18 02:35:28;290590.00;0.97;501.74;71559.00;0.24;124.45;;;;;22.50;7.50;;;;;;2288418;40;3457;-88
2023/08/18 02:37:55;567661.00;1.89;978.41;72656.00;0.24;126.35;;;;;22.30;7.80;;;;;;2272096;61;1668;-89
2023/08/18 02:40:21;250514.00;0.84;432.83;34071.00;0.11;59.63;;;;;22.30;7.80;;;;;;2272453;61;914;-88
2023/08/18 02:42:49;190869.00;0.64;330.20;0.00;0.00;0.62;;;;;22.30;7.80;;;;;;2272595;61;1307;-90
2023/08/18 02:45:16;353731.00;1.18;610.27;37767.00;0.13;66.02;;;;;22.40;6.90;;;;;;2272448;61;2267;-88
2023/08/18 02:50:12;645533.00;2.15;1112.91;0.00;0.00;0.62;;;;;22.30;7.90;;;;;;2274250;55;3661;-89
2023/08/18 02:52:39;163511.00;0.55;283.09;0.00;0.00;0.62;;;;;22.00;9.20;;;;;;2268405;61;1713;-89
2023/08/18 02:55:06;227593.00;0.76;393.41;0.00;0.00;0.62;;;;;22.00;9.10;;;;;;2268350;61;1924;-88
2023/08/18 02:57:33;159698.00;0.53;276.52;0.00;0.00;0.62;;;;;22.10;9.10;;;;;;2268462;61;1099;-89
2023/08/18 02:59:59;226971.00;0.76;392.34;0.00;0.00;0.62;;;;;22.10;8.30;;;;;;2268406;61;1552;-88
2023/08/18 03:05:03;153479.00;0.51;265.80;0.00;0.00;0.62;;;;;22.10;7.70;;;;;;739852;60;2708;-89
2023/08/18 03:07:31;221192.00;0.74;382.39;0.00;0.00;0.62;;;;;22.20;7.80;;;;;;2268770;61;2268;-89
2023/08/18 03:12:30;484231.00;1.61;834.68;0.00;0.00;0.62;;;;;22.40;7.70;;;;;;2270668;61;1392;-89
2023/08/18 03:14:57;103593.00;0.35;179.77;0.00;0.00;0.62;;;;;22.30;7.70;;;;;;2268520;61;1998;-88
2023/08/18 03:17:24;202347.00;0.67;349.96;0.00;0.00;0.62;;;;;22.40;7.50;;;;;;2268762;61;1060;-89
2023/08/18 03:19:51;156906.00;0.52;271.71;0.00;0.00;0.62;;;;;22.40;7.50;;;;;;2268569;61;1504;-88
2023/08/18 03:22:18;160062.00;0.53;277.15;0.00;0.00;0.62;;;;;22.30;7.80;;;;;;2268778;61;1025;-89
2023/08/18 03:24:46;182999.00;0.61;316.65;16393.00;0.05;29.02;;;;;22.10;7.60;;;;;;2268597;61;1459;-89
2023/08/18 03:27:13;297194.00;0.99;513.10;0.00;0.00;0.62;;;;;22.00;8.90;;;;;;2279597;56;3786;-89
2023/08/18 03:29:40;107564.00;0.36;186.63;0.00;0.00;0.62;;;;;22.10;8.70;;;;;;2273367;61;1615;-89
2023/08/18 03:32:07;1088735.00;3.63;1890.29;102449.00;0.34;177.80;;;;;22.20;7.80;;;;;;2273107;61;1455;-88
2023/08/18 03:34:34;1093349.00;3.64;1898.53;97828.00;0.33;169.82;;;;;22.30;7.90;;;;;;2273409;61;1407;-89
2023/08/18 03:37:00;1162362.00;3.87;2022.32;55708.00;0.19;97.06;;;;;22.20;7.40;;;;;;2273366;61;2010;-90
2023/08/18 03:39:27;1012893.00;3.38;1755.32;49720.00;0.17;86.70;;;;;22.30;5.80;;;;;;2273531;61;1312;-88
2023/08/18 03:41:56;1015756.00;3.39;1760.40;156602.00;0.52;271.18;;;;;22.30;3.40;;;;;;2273384;61;1141;-90
2023/08/18 03:44:22;967339.00;3.22;1674.71;167815.00;0.56;290.50;;;;;22.40;3.00;;;;;;2273333;61;1607;-88
2023/08/18 03:49:19;660121.00;2.20;1138.15;162731.00;0.54;281.74;;;;;22.50;3.70;;;;;;1959556;40;3429;-90
2023/08/18 03:54:20;123975744.00;413.25;77197632.00;82742.00;0.28;143.77;;;;;22.40;4.40;;;;;;2271033;61;1399;-89
2023/08/18 03:56:46;362936.00;1.21;626.10;87380.00;0.29;151.78;;;;;22.20;4.30;;;;;;2269258;61;1997;-89
2023/08/18 03:59:15;317237.00;1.06;547.55;108719.00;0.36;188.62;;;;;22.30;4.40;;;;;;2269320;61;2222;-88
2023/08/18 04:09:15;369065.00;1.23;636.63;0.00;0.00;0.62;;;;;22.40;1.50;;;;;;2271113;61;1425;-89
2023/08/18 04:11:43;0.00;0.00;0.62;0.00;0.00;0.62;;;;;22.40;1.80;;;;;;2269161;61;1770;-89
2023/08/18 04:14:11;70327.00;0.23;122.33;0.00;0.00;0.62;;;;;22.40;1.80;;;;;;2269150;61;1313;-90
2023/08/18 04:16:39;81890.00;0.27;142.30;0.00;0.00;0.62;;;;;22.30;2.10;;;;;;2283787;40;3634;-89
2023/08/18 04:19:06;43609.00;0.15;76.13;0.00;0.00;0.62;;;;;22.30;2.00;;;;;;2273165;61;1729;-88
2023/08/18 04:24:02;409479.00;1.36;706.10;0.00;0.00;0.62;;;;;22.40;2.10;;;;;;2270656;61;1449;-89
2023/08/18 04:26:29;78598.00;0.26;136.62;12528.00;0.04;22.33;;;;;22.20;2.40;;;;;;2269197;61;1036;-90
2023/08/18 04:28:56;90134.00;0.30;156.54;0.00;0.00;0.62;;;;;22.30;2.80;;;;;;2318814;55;3883;-89
2023/08/18 04:31:24;248958.00;0.83;430.16;0.00;0.00;0.62;;;;;22.30;2.60;;;;;;2309573;40;3610;-88
2023/08/18 04:33:52;199342.00;0.66;344.79;0.00;0.00;0.62;;;;;22.20;3.10;;;;;;2273271;61;1410;-90
2023/08/18 04:36:19;193055.00;0.64;333.97;0.00;0.00;0.62;;;;;22.30;3.30;;;;;;2272964;61;2004;-90
2023/08/18 04:38:46;232337.00;0.77;401.57;0.00;0.00;0.62;;;;;22.30;3.20;;;;;;2273216;61;1154;-90
2023/08/18 04:41:13;256121.00;0.85;442.48;0.00;0.00;0.62;;;;;22.30;3.00;;;;;;2273184;61;1163;-89
2023/08/18 04:43:40;145275.00;0.48;251.66;0.00;0.00;0.62;;;;;22.20;3.10;;;;;;2272953;61;1701;-88
2023/08/18 04:46:07;810081.00;2.70;1398.71;34910.00;0.12;61.08;;;;;22.30;3.10;;;;;;2273227;61;1581;-89
2023/08/18 04:48:34;945467.00;3.15;1636.12;49881.00;0.17;86.98;;;;;22.40;3.30;;;;;;2273321;61;946;-89
2023/08/18 04:51:02;976226.00;3.25;1690.41;83041.00;0.28;144.29;;;;;22.30;3.10;;;;;;2273151;61;1560;-88
2023/08/18 04:53:29;555587.00;1.85;957.59;0.00;0.00;0.62;;;;;22.30;3.60;;;;;;2273265;61;1265;-89
2023/08/18 04:55:56;1069238.00;3.56;1855.50;173598.00;0.58;300.46;;;;;22.40;3.40;;;;;;2273119;61;1997;-89
2023/08/18 04:58:23;1199960.00;4.00;2090.15;154716.00;0.52;267.93;;;;;22.40;3.30;;;;;;2273278;61;1066;-88
2023/08/18 05:00:50;914824.00;3.05;1582.17;135910.00;0.45;235.52;;;;;22.50;3.30;;;;;;2273147;61;1581;-89
2023/08/18 05:03:17;920457.00;3.07;1592.08;2217.00;0.01;4.46;;;;;22.50;2.90;;;;;;2273158;61;1398;-89
2023/08/18 05:05:59;1003702.00;3.35;1739.03;121598.00;0.41;210.84;;;;;22.60;2.90;;;;;;2273207;61;873;-90
2023/08/18 05:08:28;719455.00;2.40;1240.99;27516.00;0.09;48.28;;;;;22.70;2.90;;;;;;2273189;61;981;-90
2023/08/18 05:10:58;1120228.00;3.73;1946.64;115638.00;0.39;200.56;;;;;22.70;2.80;;;;;;2273183;61;1631;-89
2023/08/18 05:15:54;1215985.00;4.05;2119.15;63936.00;0.21;111.28;;;;;22.90;2.50;;;;;;2271048;61;1973;-88
2023/08/18 05:18:21;371936.00;1.24;641.56;66965.00;0.22;116.52;;;;;22.80;3.20;;;;;;2269105;61;1068;-89
2023/08/18 05:20:48;408516.00;1.36;704.45;68235.00;0.23;118.71;;;;;22.60;4.20;;;;;;2269084;61;1125;-90
2023/08/18 05:23:17;321299.00;1.07;554.53;77427.00;0.26;134.59;;;;;22.80;3.80;;;;;;2269142;61;1360;-88
2023/08/18 05:25:48;160988.00;0.54;278.74;61517.00;0.21;107.10;;;;;22.90;3.80;;;;;;2268977;61;1706;-88
2023/08/18 05:28:15;139120.00;0.46;241.05;0.00;0.00;0.62;;;;;23.30;2.80;;;;;;2268989;61;1625;-89
2023/08/18 05:33:11;484184.00;1.61;834.60;0.00;0.00;0.62;;;;;23.20;2.70;;;;;;2283687;40;3645;-88
2023/08/18 05:35:38;68483.00;0.23;119.14;0.00;0.00;0.62;;;;;23.20;4.40;;;;;;2272926;61;1919;-90
2023/08/18 05:40:41;490199.00;1.63;844.95;0.00;0.00;0.62;;;;;25.10;3.60;;;;;;2270933;61;1401;-90
2023/08/18 05:43:10;80795.00;0.27;140.41;0.00;0.00;0.62;;;;;26.20;3.20;;;;;;2269079;61;1347;-88
2023/08/18 05:45:37;148257.00;0.49;256.80;0.00;0.00;0.62;;;;;27.80;1.00;;;;;;2268982;61;942;-89
2023/08/18 05:48:05;232682.00;0.78;402.16;0.00;0.00;0.62;;;;;28.80;1.00;;;;;;2304516;40;3614;-91
2023/08/18 05:50:32;186402.00;0.62;322.51;0.00;0.00;0.62;;;;;29.40;1.00;;;;;;2273078;61;1724;-88
2023/08/18 05:53:01;150389.00;0.50;260.48;0.00;0.00;0.62;;;;;29.90;1.00;;;;;;2273133;61;1159;-89
2023/08/18 05:55:30;95757.00;0.32;166.25;0.00;0.00;0.62;;;;;30.40;1.00;;;;;;2272911;61;2006;-90
2023/08/18 05:58:00;25286.00;0.08;44.42;0.00;0.00;0.62;;;;;30.70;1.00;;;;;;2272970;61;1696;-91
2023/08/18 06:00:29;302310.00;1.01;521.89;0.00;0.00;0.62;;;;;31.50;1.00;;;;;;2273037;61;1602;-90
2023/08/18 06:02:56;205665.00;0.69;355.67;0.00;0.00;0.62;;;;;32.00;1.00;;;;;;2273038;61;1442;-88
2023/08/18 06:05:26;254198.00;0.85;439.17;0.00;0.00;0.62;;;;;33.00;1.00;;;;;;2273080;61;1328;-88
2023/08/18 06:07:53;8670.00;0.03;15.64;0.00;0.00;0.62;;;;;33.30;1.00;;;;;;2272978;61;1737;-88
2023/08/18 06:10:20;156439.00;0.52;270.90;0.00;0.00;0.62;;;;;34.10;1.00;;;;;;2273083;61;1079;-88
2023/08/18 06:12:47;169664.00;0.57;293.69;0.00;0.00;0.62;;;;;34.50;1.00;;;;;;2272923;61;1694;-89
2023/08/18 06:15:14;69572.00;0.23;121.02;0.00;0.00;0.62;;;;;34.90;1.00;;;;;;2273044;61;1427;-88
2023/08/18 06:17:43;73028.00;0.24;126.99;0.00;0.00;0.62;;;;;35.40;1.00;;;;;;2272896;61;2001;-90
2023/08/18 06:20:11;293819.00;0.98;507.29;34786.00;0.12;60.87;;;;;35.70;1.00;;;;;;2273001;61;1116;-88
2023/08/18 06:22:38;107482.00;0.36;186.48;0.00;0.00;0.62;;;;;35.80;1.00;;;;;;2272990;61;1044;-90
2023/08/18 06:25:06;276257.00;0.92;477.10;0.00;0.00;0.62;;;;;36.10;1.00;;;;;;2272862;61;1575;-88
2023/08/18 06:27:33;89318.00;0.30;155.13;0.00;0.00;0.62;;;;;36.00;1.00;;;;;;2272932;61;978;-89
2023/08/18 06:30:00;13164.00;0.04;23.43;0.00;0.00;0.62;;;;;36.30;1.00;;;;;;2272983;61;1590;-88
2023/08/18 06:32:27;35014.00;0.12;61.26;0.00;0.00;0.62;;;;;36.50;1.00;;;;;;2273023;61;1081;-89
2023/08/18 06:34:56;167990.00;0.56;290.80;6142.00;0.02;11.26;;;;;35.90;1.00;;;;;;2272953;61;1397;-88
2023/08/18 06:37:23;72742.00;0.24;126.50;0.00;0.00;0.62;;;;;36.00;1.00;;;;;;2272957;61;1922;-89
2023/08/18 06:39:49;31467.00;0.10;55.12;0.00;0.00;0.62;;;;;35.80;1.00;;;;;;2272960;61;1078;-88
2023/08/18 06:42:16;71561.00;0.24;124.46;0.00;0.00;0.62;;;;;36.00;1.00;;;;;;2272914;61;1590;-91
2023/08/18 06:44:43;20610.00;0.07;36.33;0.00;0.00;0.62;;;;;36.30;1.00;;;;;;2272786;61;1572;-88
2023/08/18 06:47:10;21118.00;0.07;37.21;0.00;0.00;0.62;;;;;36.50;1.00;;;;;;2272893;61;1035;-88
2023/08/18 06:49:37;254800.00;0.85;440.21;45802.00;0.15;79.93;;;;;36.60;1.00;;;;;;2272950;61;1138;-89
2023/08/18 06:52:05;116339.00;0.39;201.77;0.00;0.00;0.62;;;;;37.00;1.00;;;;;;2272946;61;1008;-88
2023/08/18 06:54:33;144853.00;0.48;250.94;0.00;0.00;0.62;;;;;36.90;1.00;;;;;;2272745;61;1539;-90
2023/08/18 06:57:00;60060.00;0.20;104.58;0.00;0.00;0.62;;;;;37.00;1.00;;;;;;2272859;61;1923;-89
2023/08/18 06:59:27;252663.00;0.84;436.53;0.00;0.00;0.62;;;;;37.30;1.00;;;;;;2272858;61;1756;-91
2023/08/18 07:01:54;148126.00;0.49;256.58;0.00;0.00;0.62;;;;;37.20;1.00;;;;;;2272847;61;1417;-87
2023/08/18 07:04:21;475056.00;1.58;818.89;55044.00;0.18;95.91;;;;;37.80;1.00;;;;;;2272611;61;1375;-85
2023/08/18 07:06:49;448872.00;1.50;773.84;0.00;0.00;0.62;;;;;38.40;1.00;;;;;;2272466;61;1240;-89
2023/08/18 07:09:17;677923.00;2.26;1168.98;50101.00;0.17;87.36;;;;;37.90;1.00;;;;;;2272724;61;1653;-90
2023/08/18 07:14:12;1226528.00;4.09;2138.26;49137.00;0.16;85.69;;;;;39.30;1.00;;;;;;2270720;61;1421;-91
2023/08/18 07:16:39;276612.00;0.92;477.71;11995.00;0.04;21.41;;;;;39.40;1.00;;;;;;2268683;61;2006;-88
2023/08/18 07:19:06;995273.00;3.32;1724.10;76976.00;0.26;133.81;;;;;38.80;1.00;;;;;;2268856;61;1082;-88
2023/08/18 07:21:33;800765.00;2.67;1382.46;77687.00;0.26;135.04;;;;;38.80;1.00;;;;;;2268824;61;959;-89
2023/08/18 07:24:00;591178.00;1.97;1018.99;0.00;0.00;0.62;;;;;38.90;1.00;;;;;;2268807;61;1305;-89
2023/08/18 07:26:29;876467.00;2.92;1514.83;20009.00;0.07;35.29;;;;;39.40;1.00;;;;;;2328084;40;3576;-91
2023/08/18 07:28:56;744706.00;2.48;1284.85;17519.00;0.06;30.97;;;;;39.70;1.00;;;;;;2272625;61;1761;-88
2023/08/18 07:31:23;1155265.00;3.85;2009.54;85377.00;0.28;148.32;;;;;39.30;1.00;;;;;;2272742;61;1780;-89
2023/08/18 07:33:50;828062.00;2.76;1430.11;103962.00;0.35;180.41;;;;;38.50;1.00;;;;;;2272803;61;1283;-88
2023/08/18 07:38:44;1149125.00;3.83;1998.50;92030.00;0.31;159.81;;;;;38.40;1.00;;;;;;2270652;61;1409;-88
2023/08/18 07:41:11;505766.00;1.69;871.75;57866.00;0.19;100.79;;;;;38.20;1.00;;;;;;2286571;40;3613;-88
2023/08/18 07:43:40;311239.00;1.04;537.24;48464.00;0.16;84.53;;;;;38.30;1.00;;;;;;2296728;55;3812;-88
2023/08/18 07:46:07;276727.00;0.92;477.91;58859.00;0.20;102.50;;;;;38.40;1.00;;;;;;2272620;61;1559;-88
2023/08/18 07:48:33;359224.00;1.20;619.72;55706.00;0.19;97.05;;;;;37.90;1.00;;;;;;2272600;61;1566;-87
2023/08/18 07:51:00;510614.00;1.70;880.10;53291.00;0.18;92.88;;;;;37.80;1.00;;;;;;2297313;40;3627;-89
2023/08/18 10:07:52;1766458.00;5.89;3155.29;137566.00;0.46;238.37;;;;;33.10;1.00;;;;;;2067706;56;3532;-90
2023/08/18 10:43:58;757368.00;2.52;1306.87;0.00;0.00;0.62;;;;;32.40;1.00;;;;;;1681416;55;3596;-90
2023/08/18 10:53:53;902416.00;3.01;1560.36;0.00;0.00;0.62;;;;;33.40;1.00;;;;;;1979954;56;3585;-90
2023/08/18 10:56:20;176270.00;0.59;305.07;0.00;0.00;0.62;;;;;33.50;1.00;;;;;;2321128;55;3779;-91
2023/08/18 11:08:47;752936.00;2.51;1299.16;0.00;0.00;0.62;;;;;33.00;1.00;;;;;;2008284;55;3570;-89
2023/08/18 11:18:46;696757.00;2.32;1201.62;0.00;0.00;0.62;;;;;33.60;1.00;;;;;;817010;56;3558;-87
2023/08/18 11:41:06;996391.00;3.32;1726.08;0.00;0.00;0.62;;;;;33.80;1.00;;;;;;2339525;40;3441;-89
2023/08/18 11:43:33;435688.00;1.45;751.17;26829.00;0.09;47.09;;;;;33.20;1.00;;;;;;2297546;40;3633;-89
2023/08/18 11:46:00;1477106.00;4.92;2600.11;35125.00;0.12;61.45;;;;;32.90;1.00;;;;;;2282113;56;3705;-87
2023/08/18 11:48:29;95455.00;0.32;165.73;0.00;0.00;0.62;;;;;33.10;1.00;;;;;;2297335;40;3607;-86
2023/08/18 12:00:58;629283.00;2.10;1084.81;0.00;0.00;0.62;;;;;34.30;1.00;;;;;;2309473;56;3601;-88
2023/08/18 12:11:03;412988.00;1.38;712.13;0.00;0.00;0.62;;;;;34.00;1.00;;;;;;852030;56;2708;-88
2023/08/18 12:28:24;519546.00;1.73;895.48;0.00;0.00;0.62;;;;;35.10;1.00;;;;;;2287505;56;3731;-91
2023/08/18 12:30:50;330470.00;1.10;570.29;0.00;0.00;0.62;;;;;35.10;1.00;;;;;;2357108;40;3568;-90
2023/08/18 12:35:50;933402.00;3.11;1614.86;0.00;0.00;0.62;;;;;34.80;1.00;;;;;;2275094;40;3512;-88
2023/08/18 12:45:46;1181003.00;3.94;2055.91;0.00;0.00;0.62;;;;;35.30;1.00;;;;;;1535111;56;3583;-89
2023/08/18 12:58:12;969772.00;3.23;1679.01;0.00;0.00;0.62;;;;;35.20;1.00;;;;;;821658;41;3432;-91
2023/08/18 13:03:10;600063.00;2.00;1034.33;0.00;0.00;0.62;;;;;34.90;1.00;;;;;;2300057;40;3664;-89
2023/08/18 13:05:37;69535.00;0.23;120.96;0.00;0.00;0.62;;;;;35.20;1.00;;;;;;2268869;61;1649;-89
2023/08/18 13:08:04;205194.00;0.68;354.86;0.00;0.00;0.62;;;;;35.20;1.00;;;;;;2268978;61;1611;-88
2023/08/18 13:13:01;669867.00;2.23;1155.02;0.00;0.00;0.62;;;;;35.70;1.00;;;;;;2298004;56;3594;-89
2023/08/18 13:15:29;548713.00;1.83;945.74;8206.00;0.03;14.84;;;;;35.50;1.00;;;;;;2326067;56;3806;-88
2023/08/18 13:20:25;825369.00;2.75;1425.40;0.00;0.00;0.62;;;;;35.10;1.00;;;;;;2285367;55;3624;-88
2023/08/18 13:32:54;394307.00;1.31;680.02;0.00;0.00;0.62;;;;;34.40;1.00;;;;;;2320511;41;3458;-89
2023/08/18 13:35:21;271621.00;0.91;469.13;0.00;0.00;0.62;;;;;34.70;1.00;;;;;;2330803;40;3902;-89
2023/08/18 13:45:16;1077245.00;3.59;1869.78;67031.00;0.22;116.63;;;;;34.80;1.00;;;;;;2292105;40;3547;-90
2023/08/18 13:55:12;766040.00;2.55;1321.96;0.00;0.00;0.62;;;;;34.20;1.00;;;;;;2267514;61;1395;-88
2023/08/18 13:57:40;150571.00;0.50;260.79;0.00;0.00;0.62;;;;;34.30;1.00;;;;;;2265574;61;1915;-90
2023/08/18 14:02:36;1115365.00;3.72;1937.92;0.00;0.00;0.62;;;;;34.20;1.00;;;;;;2300460;56;3586;-89
2023/08/18 14:07:33;1036774.00;3.46;1797.71;17087.00;0.06;30.23;;;;;34.40;1.00;;;;;;1938487;56;3576;-88
2023/08/18 14:10:00;0.00;0.00;0.62;0.00;0.00;0.62;;;;;34.60;1.00;;;;;;2272888;61;1467;-89
2023/08/18 14:12:27;284504.00;0.95;491.28;76621.00;0.26;133.20;;;;;34.60;1.00;;;;;;2272964;61;1658;-90
2023/08/18 14:24:53;475427.00;1.58;819.53;0.00;0.00;0.62;;;;;34.70;1.00;;;;;;2328099;55;3651;-90
2023/08/18 14:29:49;1028799.00;3.43;1783.55;21286.00;0.07;37.50;;;;;34.50;1.00;;;;;;2266201;61;1308;-88
2023/08/18 14:32:17;222897.00;0.74;385.33;22532.00;0.08;39.65;;;;;34.80;1.00;;;;;;2280610;40;3615;-89
2023/08/18 14:49:44;510400.00;1.70;879.73;0.00;0.00;0.62;;;;;35.20;1.00;;;;;;2287408;55;3685;-89
2023/08/18 14:54:40;1158878.00;3.86;2016.05;103830.00;0.35;180.18;;;;;35.10;1.00;;;;;;2283551;40;3491;-88
2023/08/18 15:04:33;997271.00;3.32;1727.64;0.00;0.00;0.62;;;;;35.30;1.00;;;;;;2293500;55;4047;-89
2023/08/18 15:07:02;337745.00;1.13;582.80;0.00;0.00;0.62;;;;;35.20;1.00;;;;;;2304635;55;3864;-89
2023/08/18 15:09:31;328567.00;1.10;567.02;0.00;0.00;0.62;;;;;34.80;1.00;;;;;;2272544;61;1704;-89
2023/08/18 15:11:58;170194.00;0.57;294.60;15080.00;0.05;26.75;;;;;34.80;1.00;;;;;;2317540;55;3781;-89
2023/08/18 15:14:25;468573.00;1.56;807.73;180432.00;0.60;312.23;;;;;34.90;1.00;;;;;;2272564;61;1766;-88
2023/08/18 15:19:26;513574.00;1.71;885.20;0.00;0.00;0.62;;;;;34.70;1.00;;;;;;2266167;61;1437;-88
2023/08/18 15:21:53;359369.00;1.20;619.96;0.00;0.00;0.62;;;;;35.10;1.00;;;;;;2284741;56;3749;-88
2023/08/18 15:24:21;253816.00;0.85;438.51;21130.00;0.07;37.23;;;;;35.20;1.00;;;;;;2392628;41;3684;-89
2023/08/18 15:26:49;405322.00;1.35;698.95;1182.00;0.00;2.67;;;;;35.40;1.00;;;;;;2272608;61;1740;-89
2023/08/18 15:31:49;1153280.00;3.84;2005.97;0.00;0.00;0.62;;;;;35.70;1.00;;;;;;2295850;40;3500;-90
2023/08/18 15:36:51;859418.00;2.86;1484.95;0.00;0.00;0.62;;;;;35.90;1.00;;;;;;1978629;60;2081;-87
2023/08/18 15:39:18;300367.00;1.00;518.55;0.00;0.00;0.62;;;;;35.90;1.00;;;;;;2269046;61;2003;-89
2023/08/18 15:41:46;340076.00;1.13;586.80;63557.00;0.21;110.63;;;;;35.90;1.00;;;;;;2269227;61;1510;-90
2023/08/18 15:46:43;752731.00;2.51;1298.81;0.00;0.00;0.62;;;;;35.90;1.00;;;;;;2267307;61;1334;-90
2023/08/18 15:49:10;355961.00;1.19;614.11;43638.00;0.15;76.18;;;;;35.80;1.00;;;;;;2265162;61;1689;-89
2023/08/18 15:51:37;131848.00;0.44;228.52;0.00;0.00;0.62;;;;;35.70;1.00;;;;;;2265314;61;1572;-89
2023/08/18 15:54:05;279901.00;0.93;483.37;0.00;0.00;0.62;;;;;35.70;1.00;;;;;;2296055;41;3605;-91
2023/08/18 15:59:04;707730.00;2.36;1220.65;0.00;0.00;0.62;;;;;35.80;1.00;;;;;;2271245;56;3523;-88
2023/08/18 16:01:31;0.00;0.00;0.62;0.00;0.00;0.62;;;;;35.80;1.00;;;;;;2273400;61;1459;-89
2023/08/18 16:03:58;269034.00;0.90;464.68;37025.00;0.12;64.74;;;;;35.80;1.00;;;;;;2273337;61;1750;-89
2023/08/18 16:06:26;405716.00;1.35;699.63;84918.00;0.28;147.53;;;;;35.70;1.00;;;;;;2273205;61;1106;-89
2023/08/18 16:08:53;45284.00;0.15;79.03;0.00;0.00;0.62;;;;;35.90;1.00;;;;;;2349054;40;3581;-89
2023/08/18 16:11:20;118543.00;0.40;205.57;19561.00;0.07;34.51;;;;;35.80;1.00;;;;;;2273335;61;1699;-89
2023/08/18 16:13:47;273675.00;0.91;472.66;0.00;0.00;0.62;;;;;35.40;1.00;;;;;;2273329;61;1303;-88
2023/08/18 16:16:15;24975.00;0.08;43.88;0.00;0.00;0.62;;;;;35.20;1.00;;;;;;2273274;61;1754;-89
2023/08/18 16:21:12;437411.00;1.46;754.13;45963.00;0.15;80.20;;;;;35.30;1.00;;;;;;2275066;61;1400;-88
2023/08/18 16:23:40;169410.00;0.56;293.25;0.00;0.00;0.62;;;;;35.20;1.00;;;;;;2273308;61;1379;-88
2023/08/18 16:28:35;766583.00;2.56;1322.91;0.00;0.00;0.62;;;;;35.40;1.00;;;;;;1939373;40;3550;-90
2023/08/18 16:31:02;52976.00;0.18;92.33;0.00;0.00;0.62;;;;;35.10;1.00;;;;;;2280094;55;3743;-88
2023/08/18 16:33:31;462186.00;1.54;796.75;17811.00;0.06;31.48;;;;;35.30;1.00;;;;;;2273114;61;1530;-89
2023/08/18 16:38:27;888095.00;2.96;1535.22;0.00;0.00;0.62;;;;;35.30;1.00;;;;;;2274740;61;1907;-87
2023/08/18 16:40:54;95284.00;0.32;165.43;8653.00;0.03;15.62;;;;;35.40;1.00;;;;;;2273282;61;1583;-89
2023/08/18 16:43:21;697253.00;2.32;1202.48;85045.00;0.28;147.75;;;;;35.40;1.00;;;;;;2281398;40;3581;-90
2023/08/18 16:45:48;223323.00;0.74;386.06;31835.00;0.11;55.76;;;;;35.20;1.00;;;;;;2287430;55;3773;-91
2023/08/18 16:48:15;78085.00;0.26;135.73;0.00;0.00;0.62;;;;;35.10;1.00;;;;;;2273144;61;1704;-87
2023/08/18 16:50:45;267764.00;0.89;462.50;25504.00;0.09;44.80;;;;;35.00;1.00;;;;;;2273383;61;1075;-89